Time;durP1;ratioP1;P1;durP2;ratioP2;P2;SDS_P1;SDS_P2;PMS_P1;PMS_P2;Temp;Humidity;BMP_temperature;BMP_pressure;BME280_temperature;BME280_humidity;BME280_pressure;Samples;Min_cycle;Max_cycle;Signal;HPM_P1;HPM_P2
2021/01/06 00:01:43;;;;;;;;;;;5.40;94.90;;;;;;4998532;28;19929;-92
2021/01/06 00:04:08;;;;;;;;;;;5.40;94.90;;;;;;5014874;28;19913;-92
2021/01/06 00:06:35;;;;;;;;;;;5.40;94.90;;;;;;4998553;28;19914;-89
2021/01/06 00:09:01;;;;;;;;;;;5.40;94.90;;;;;;5013646;28;19997;-92
2021/01/06 00:11:33;;;;;;;;;;;5.40;94.90;;;;;;5012361;28;20008;-94
2021/01/06 00:13:59;;;;;;;;;;;5.40;95.00;;;;;;5006247;28;19910;-92
2021/01/06 00:16:25;;;;;;;;;;;5.40;94.90;;;;;;4994924;28;20059;-92
2021/01/06 00:18:51;;;;;;;;;;;5.40;94.90;;;;;;5002789;28;20307;-92
2021/01/06 00:21:17;;;;;;;;;;;5.40;94.90;;;;;;4994964;28;20008;-91
2021/01/06 00:23:42;;;;;;;;;;;5.40;95.00;;;;;;5008211;28;19956;-92
2021/01/06 00:26:08;;;;;;;;;;;5.40;94.90;;;;;;5014882;28;19914;-93
2021/01/06 00:28:33;;;;;;;;;;;5.40;94.90;;;;;;5014205;28;19920;-92
2021/01/06 00:30:59;;;;;;;;;;;5.40;95.00;;;;;;4998179;28;19918;-93
2021/01/06 00:33:29;;;;;;;;;;;5.40;95.00;;;;;;4996635;28;19917;-93
2021/01/06 00:35:56;;;;;;;;;;;5.40;95.00;;;;;;5015457;28;19971;-91
2021/01/06 00:38:22;;;;;;;;;;;5.40;95.00;;;;;;5014282;28;19967;-92
2021/01/06 00:40:47;;;;;;;;;;;5.40;95.10;;;;;;5013964;28;19921;-91
2021/01/06 00:43:14;;;;;;;;;;;5.40;95.00;;;;;;4995299;28;19914;-90
2021/01/06 00:45:41;;;;;;;;;;;5.40;95.00;;;;;;5012769;28;19913;-92
2021/01/06 00:48:07;;;;;;;;;;;5.40;95.10;;;;;;5014283;28;19993;-92
2021/01/06 00:50:32;;;;;;;;;;;5.40;95.10;;;;;;4997580;28;20012;-93
2021/01/06 00:52:59;;;;;;;;;;;5.40;95.10;;;;;;4997558;28;19961;-91
2021/01/06 00:55:25;;;;;;;;;;;5.40;95.10;;;;;;5015263;28;19909;-93
2021/01/06 00:57:51;;;;;;;;;;;5.40;95.10;;;;;;5013692;28;19918;-92
2021/01/06 01:00:18;;;;;;;;;;;5.40;95.10;;;;;;5014576;28;19921;-93
2021/01/06 01:02:45;;;;;;;;;;;5.40;95.20;;;;;;5008325;28;20368;-93
2021/01/06 01:05:12;;;;;;;;;;;5.40;95.10;;;;;;5005967;28;19910;-92
2021/01/06 01:07:37;;;;;;;;;;;5.40;95.10;;;;;;5014846;28;19999;-91
2021/01/06 01:10:03;;;;;;;;;;;5.40;95.10;;;;;;5013069;28;20036;-94
2021/01/06 01:12:29;;;;;;;;;;;5.40;95.10;;;;;;5005146;28;19917;-93
2021/01/06 01:14:54;;;;;;;;;;;5.40;95.00;;;;;;4991946;28;19964;-92
2021/01/06 01:17:20;;;;;;;;;;;5.40;95.00;;;;;;5014223;28;20326;-91
2021/01/06 01:19:45;;;;;;;;;;;5.40;95.00;;;;;;4999635;28;19914;-89
2021/01/06 01:22:10;;;;;;;;;;;5.40;94.90;;;;;;5014079;28;19913;-92
2021/01/06 01:24:36;;;;;;;;;;;5.40;94.90;;;;;;5015140;28;19917;-91
2021/01/06 01:27:02;;;;;;;;;;;5.40;94.90;;;;;;4997997;28;19925;-92
2021/01/06 01:29:27;;;;;;;;;;;5.40;95.00;;;;;;4995000;28;19988;-93
2021/01/06 01:31:53;;;;;;;;;;;5.40;95.00;;;;;;5000939;28;19921;-91
2021/01/06 01:34:18;;;;;;;;;;;5.30;95.00;;;;;;5012813;28;20454;-93
2021/01/06 01:36:48;;;;;;;;;;;5.30;95.00;;;;;;5013584;28;19920;-92
2021/01/06 01:39:14;;;;;;;;;;;5.30;95.00;;;;;;4998623;28;19926;-93
2021/01/06 01:41:39;;;;;;;;;;;5.40;95.10;;;;;;5010714;28;19914;-92
2021/01/06 01:44:05;;;;;;;;;;;5.40;95.10;;;;;;5007157;28;19940;-91
2021/01/06 01:46:48;;;;;;;;;;;5.40;95.00;;;;;;5032699;28;19894;-91
2021/01/06 01:49:16;;;;;;;;;;;5.40;95.00;;;;;;5026673;28;19965;-87
2021/01/06 01:51:47;;;;;;;;;;;5.40;95.00;;;;;;5036881;28;19992;-87
2021/01/06 01:54:14;;;;;;;;;;;5.30;94.90;;;;;;5034289;28;19893;-92
2021/01/06 01:56:40;;;;;;;;;;;5.30;94.90;;;;;;5032669;28;19920;-87
2021/01/06 01:59:08;;;;;;;;;;;5.30;94.90;;;;;;5032668;28;19989;-92
2021/01/06 02:01:34;;;;;;;;;;;5.30;94.90;;;;;;5026678;28;19921;-92
2021/01/06 02:04:02;;;;;;;;;;;5.30;94.90;;;;;;4999549;28;20029;-90
2021/01/06 02:06:30;;;;;;;;;;;5.30;94.90;;;;;;5013666;28;19955;-93
2021/01/06 02:09:03;;;;;;;;;;;5.30;94.90;;;;;;5009249;28;19914;-91
2021/01/06 02:11:33;;;;;;;;;;;5.30;94.90;;;;;;5004475;28;19964;-92
2021/01/06 02:14:10;;;;;;;;;;;5.30;94.90;;;;;;5012250;28;19917;-92
2021/01/06 02:16:36;;;;;;;;;;;5.30;95.00;;;;;;5012571;28;19910;-92
2021/01/06 02:19:02;;;;;;;;;;;5.30;94.90;;;;;;5011868;28;19921;-91
2021/01/06 02:21:28;;;;;;;;;;;5.30;95.00;;;;;;5003959;28;19918;-92
2021/01/06 02:23:56;;;;;;;;;;;5.30;95.00;;;;;;5006962;28;20438;-93
2021/01/06 02:26:22;;;;;;;;;;;5.30;94.90;;;;;;5012343;28;20426;-91
2021/01/06 02:28:48;;;;;;;;;;;5.30;94.80;;;;;;4998865;28;19914;-92
2021/01/06 02:31:14;;;;;;;;;;;5.30;94.80;;;;;;5006250;28;19921;-91
2021/01/06 02:33:40;;;;;;;;;;;5.20;94.80;;;;;;4984659;28;20392;-91
2021/01/06 02:36:06;;;;;;;;;;;5.30;94.70;;;;;;4995583;28;19925;-93
2021/01/06 02:38:32;;;;;;;;;;;5.20;94.70;;;;;;5012199;28;19918;-90
2021/01/06 02:40:57;;;;;;;;;;;5.20;94.70;;;;;;4994755;28;19952;-91
2021/01/06 02:43:24;;;;;;;;;;;5.20;94.60;;;;;;5012400;28;19913;-90
2021/01/06 02:45:50;;;;;;;;;;;5.20;94.60;;;;;;5011670;28;20111;-92
2021/01/06 02:48:16;;;;;;;;;;;5.20;94.80;;;;;;5012200;28;20403;-91
2021/01/06 02:50:43;;;;;;;;;;;5.20;94.60;;;;;;4996018;28;19917;-93
2021/01/06 02:53:11;;;;;;;;;;;5.20;94.40;;;;;;5012737;28;19910;-90
2021/01/06 02:55:38;;;;;;;;;;;5.20;94.40;;;;;;5012007;28;19914;-90
2021/01/06 02:58:05;;;;;;;;;;;5.20;94.50;;;;;;5012283;28;19937;-92
2021/01/06 03:00:31;;;;;;;;;;;5.20;94.50;;;;;;5012242;28;19939;-92
2021/01/06 03:02:57;;;;;;;;;;;5.20;94.50;;;;;;4995213;28;19928;-92
2021/01/06 03:05:36;;;;;;;;;;;5.20;94.60;;;;;;5012279;28;20284;-91
2021/01/06 03:08:02;;;;;;;;;;;5.20;94.60;;;;;;5011792;28;19937;-93
2021/01/06 03:10:27;;;;;;;;;;;5.20;94.60;;;;;;5014025;28;19960;-91
2021/01/06 03:12:54;;;;;;;;;;;5.20;94.50;;;;;;5001223;28;19960;-91
2021/01/06 03:15:21;;;;;;;;;;;5.10;94.40;;;;;;5011524;28;20000;-93
2021/01/06 03:17:47;;;;;;;;;;;5.10;94.40;;;;;;5006466;28;19925;-92
2021/01/06 03:20:14;;;;;;;;;;;5.10;94.40;;;;;;5014350;28;19919;-92
2021/01/06 03:22:42;;;;;;;;;;;5.20;94.40;;;;;;5023676;28;19913;-93
2021/01/06 03:25:09;;;;;;;;;;;5.10;94.40;;;;;;5016264;28;19914;-91
2021/01/06 03:27:34;;;;;;;;;;;5.10;94.30;;;;;;5015735;28;19932;-91
2021/01/06 03:30:00;;;;;;;;;;;5.10;94.30;;;;;;5015405;28;19914;-91
2021/01/06 03:32:44;;;;;;;;;;;5.10;94.30;;;;;;5016410;28;19964;-92
2021/01/06 03:35:22;;;;;;;;;;;5.10;94.30;;;;;;5016123;28;19913;-92
2021/01/06 03:37:52;;;;;;;;;;;5.10;94.20;;;;;;5009401;28;19918;-90
2021/01/06 03:40:21;;;;;;;;;;;5.10;94.20;;;;;;5004322;28;20125;-92
2021/01/06 03:42:47;;;;;;;;;;;5.10;94.20;;;;;;5015070;28;19923;-92
2021/01/06 03:45:24;;;;;;;;;;;5.10;94.20;;;;;;5015042;28;19921;-91
2021/01/06 03:48:00;;;;;;;;;;;5.10;94.20;;;;;;5014510;28;20434;-89
2021/01/06 03:50:34;;;;;;;;;;;5.10;94.30;;;;;;5015321;28;19928;-92
2021/01/06 03:53:00;;;;;;;;;;;5.00;94.30;;;;;;5014721;28;19913;-92
2021/01/06 03:55:31;;;;;;;;;;;5.10;94.20;;;;;;5015403;28;19917;-93
2021/01/06 03:57:56;;;;;;;;;;;5.10;94.20;;;;;;5001974;28;19925;-88
2021/01/06 04:00:28;;;;;;;;;;;5.00;94.20;;;;;;5015311;28;19917;-92
2021/01/06 04:02:56;;;;;;;;;;;5.00;94.20;;;;;;5015421;28;20005;-91
2021/01/06 04:05:22;;;;;;;;;;;5.00;94.20;;;;;;5002015;28;20514;-90
2021/01/06 04:07:53;;;;;;;;;;;5.10;94.10;;;;;;5003923;28;20024;-92
2021/01/06 04:10:24;;;;;;;;;;;5.00;94.10;;;;;;5013109;28;20000;-92
2021/01/06 04:12:50;;;;;;;;;;;5.10;94.10;;;;;;5015991;28;19914;-93
2021/01/06 04:15:16;;;;;;;;;;;5.00;94.00;;;;;;5001839;28;20629;-91
2021/01/06 04:17:43;;;;;;;;;;;5.00;94.00;;;;;;5006630;28;19964;-92
2021/01/06 04:20:14;;;;;;;;;;;5.00;93.90;;;;;;4996764;28;20398;-93
2021/01/06 04:22:40;;;;;;;;;;;5.00;94.00;;;;;;5014664;28;20359;-93
2021/01/06 04:25:32;;;;;;;;;;;5.00;94.00;;;;;;5015386;28;19914;-92
2021/01/06 04:28:00;;;;;;;;;;;5.00;94.00;;;;;;4993498;28;19914;-93
2021/01/06 04:30:37;;;;;;;;;;;5.00;94.00;;;;;;5025352;28;19955;-92
2021/01/06 04:33:05;;;;;;;;;;;5.00;94.00;;;;;;4994559;28;19964;-91
2021/01/06 04:35:31;;;;;;;;;;;5.00;94.00;;;;;;4995636;28;19916;-92
2021/01/06 04:37:57;;;;;;;;;;;5.00;94.00;;;;;;5009617;28;20374;-93
2021/01/06 04:40:23;;;;;;;;;;;5.00;94.20;;;;;;4996666;28;19983;-93
2021/01/06 04:42:49;;;;;;;;;;;5.00;94.00;;;;;;5001834;28;19913;-90
2021/01/06 04:45:18;;;;;;;;;;;4.90;94.00;;;;;;5002470;28;20388;-92
2021/01/06 04:48:02;;;;;;;;;;;4.90;94.00;;;;;;5013124;28;19910;-92
2021/01/06 04:50:48;;;;;;;;;;;4.90;94.00;;;;;;5014164;28;19913;-93
2021/01/06 04:53:40;;;;;;;;;;;4.90;94.00;;;;;;4995003;28;19937;-92
2021/01/06 04:56:24;;;;;;;;;;;4.90;94.00;;;;;;4980756;28;20267;-93
2021/01/06 04:58:50;;;;;;;;;;;4.90;94.00;;;;;;5013904;28;19921;-91
2021/01/06 05:01:30;;;;;;;;;;;4.90;94.10;;;;;;5013749;28;19910;-92
2021/01/06 05:04:08;;;;;;;;;;;4.90;94.10;;;;;;5001606;28;20320;-92
2021/01/06 05:06:48;;;;;;;;;;;4.90;94.10;;;;;;5009530;28;19945;-92
2021/01/06 05:09:25;;;;;;;;;;;4.90;94.10;;;;;;4994201;28;19964;-92
2021/01/06 05:12:00;;;;;;;;;;;5.00;94.10;;;;;;4994516;28;20013;-93
2021/01/06 05:14:48;;;;;;;;;;;5.00;94.00;;;;;;4994761;28;19961;-94
2021/01/06 05:17:14;;;;;;;;;;;4.90;94.00;;;;;;5014015;28;20433;-90
2021/01/06 05:19:40;;;;;;;;;;;4.90;93.90;;;;;;4999830;28;19914;-91
2021/01/06 05:22:06;;;;;;;;;;;5.00;93.90;;;;;;4994698;28;19917;-93
2021/01/06 05:24:31;;;;;;;;;;;4.90;93.80;;;;;;5007898;28;20382;-93
2021/01/06 05:26:57;;;;;;;;;;;4.90;93.80;;;;;;5008564;28;19924;-92
2021/01/06 05:29:26;;;;;;;;;;;4.90;93.90;;;;;;4996437;28;20368;-92
2021/01/06 05:31:51;;;;;;;;;;;4.90;93.90;;;;;;5015093;28;19909;-92
2021/01/06 05:34:17;;;;;;;;;;;4.90;93.90;;;;;;5024826;28;19909;-92
2021/01/06 05:36:43;;;;;;;;;;;4.90;93.90;;;;;;5014397;28;19919;-91
2021/01/06 05:39:28;;;;;;;;;;;4.90;93.90;;;;;;5023553;28;19912;-91
2021/01/06 05:41:56;;;;;;;;;;;4.90;93.90;;;;;;5038954;28;19925;-91
2021/01/06 05:44:23;;;;;;;;;;;4.80;93.80;;;;;;5025023;28;19920;-90
2021/01/06 05:46:48;;;;;;;;;;;4.90;93.80;;;;;;5022529;28;19901;-86
2021/01/06 05:49:24;;;;;;;;;;;4.80;93.80;;;;;;5036563;28;19909;-91
2021/01/06 05:51:52;;;;;;;;;;;4.80;93.80;;;;;;5007502;28;19983;-92
2021/01/06 05:54:26;;;;;;;;;;;4.80;93.80;;;;;;4996066;28;19960;-92
2021/01/06 05:56:52;;;;;;;;;;;4.80;93.80;;;;;;5013829;28;19909;-92
2021/01/06 05:59:39;;;;;;;;;;;4.80;93.70;;;;;;5014276;28;19944;-91
2021/01/06 06:02:13;;;;;;;;;;;4.80;93.80;;;;;;5016681;28;19952;-90
2021/01/06 06:04:45;;;;;;;;;;;4.80;93.80;;;;;;5013484;28;19916;-91
2021/01/06 06:07:13;;;;;;;;;;;4.80;93.80;;;;;;5013705;28;19920;-92
2021/01/06 06:09:41;;;;;;;;;;;4.70;93.80;;;;;;4996217;28;19909;-91
2021/01/06 06:12:19;;;;;;;;;;;4.80;93.80;;;;;;4996048;28;19963;-91
2021/01/06 06:14:50;;;;;;;;;;;4.80;93.80;;;;;;4996325;28;19916;-91
2021/01/06 06:17:35;;;;;;;;;;;4.80;93.80;;;;;;5014170;28;19979;-91
2021/01/06 06:20:36;;;;;;;;;;;4.70;93.80;;;;;;5013460;28;19968;-91
2021/01/06 06:23:10;;;;;;;;;;;4.80;93.80;;;;;;4989841;28;20028;-90
2021/01/06 06:25:38;;;;;;;;;;;4.80;93.80;;;;;;5010309;28;19967;-88
2021/01/06 06:28:15;;;;;;;;;;;4.70;93.80;;;;;;5012632;28;20003;-91
2021/01/06 06:30:55;;;;;;;;;;;4.80;93.80;;;;;;5021735;28;19910;-91
2021/01/06 06:33:26;;;;;;;;;;;4.80;93.90;;;;;;4995792;28;19910;-91
2021/01/06 06:35:53;;;;;;;;;;;4.80;93.80;;;;;;4996199;28;19909;-89
2021/01/06 06:38:31;;;;;;;;;;;4.80;93.80;;;;;;5030319;28;20019;-90
2021/01/06 06:41:00;;;;;;;;;;;4.70;93.80;;;;;;5011885;28;19925;-90
2021/01/06 06:43:25;;;;;;;;;;;4.70;93.60;;;;;;5012973;28;19917;-91
2021/01/06 06:45:59;;;;;;;;;;;4.70;93.60;;;;;;5009480;28;19910;-91
2021/01/06 06:48:44;;;;;;;;;;;4.70;93.90;;;;;;5013480;28;19970;-90
2021/01/06 06:51:22;;;;;;;;;;;4.70;93.60;;;;;;4995069;28;19909;-91
2021/01/06 06:53:54;;;;;;;;;;;4.60;93.60;;;;;;5009865;28;20000;-90
2021/01/06 06:56:35;;;;;;;;;;;4.60;93.60;;;;;;4995633;28;19913;-90
2021/01/06 06:59:03;;;;;;;;;;;4.60;93.60;;;;;;4995427;28;19918;-91
2021/01/06 07:01:33;;;;;;;;;;;4.60;93.60;;;;;;5005336;28;20000;-92
2021/01/06 07:04:04;;;;;;;;;;;4.60;93.60;;;;;;4999705;28;19910;-93
2021/01/06 07:06:30;;;;;;;;;;;4.60;93.60;;;;;;4996199;28;20012;-92
2021/01/06 07:08:58;;;;;;;;;;;4.60;93.60;;;;;;5013210;28;19917;-93
2021/01/06 07:11:44;;;;;;;;;;;4.60;93.60;;;;;;5001882;28;20429;-92
2021/01/06 07:14:10;;;;;;;;;;;4.50;93.60;;;;;;5019335;28;19909;-92
2021/01/06 07:16:50;;;;;;;;;;;4.50;93.60;;;;;;5015663;28;19909;-91
2021/01/06 07:19:21;;;;;;;;;;;4.50;93.60;;;;;;5024985;28;19932;-92
2021/01/06 07:21:59;;;;;;;;;;;4.50;93.60;;;;;;5003903;28;19913;-92
2021/01/06 07:24:25;;;;;;;;;;;4.50;93.60;;;;;;5016790;28;19983;-92
2021/01/06 07:26:52;;;;;;;;;;;4.40;93.60;;;;;;5012886;28;20445;-93
2021/01/06 07:29:18;;;;;;;;;;;4.40;93.60;;;;;;5007187;28;19913;-92
2021/01/06 07:31:44;;;;;;;;;;;4.50;93.60;;;;;;4999289;28;19948;-91
2021/01/06 07:34:18;;;;;;;;;;;4.40;93.60;;;;;;5004925;28;19986;-95
2021/01/06 07:36:46;;;;;;;;;;;4.40;93.70;;;;;;4998138;28;19917;-92
2021/01/06 07:39:20;;;;;;;;;;;4.40;93.70;;;;;;4998564;28;19925;-92
2021/01/06 07:41:45;;;;;;;;;;;4.40;93.70;;;;;;5015074;28;20383;-92
2021/01/06 07:44:11;;;;;;;;;;;4.40;93.70;;;;;;5013961;28;19924;-93
2021/01/06 07:46:47;;;;;;;;;;;4.50;93.70;;;;;;5001320;28;20003;-93
2021/01/06 07:49:21;;;;;;;;;;;4.40;93.70;;;;;;5003900;28;20363;-92
2021/01/06 07:51:56;;;;;;;;;;;4.50;93.70;;;;;;4998795;28;19916;-91
2021/01/06 07:54:31;;;;;;;;;;;4.50;93.70;;;;;;5013726;28;19914;-93
2021/01/06 07:57:19;;;;;;;;;;;4.50;93.70;;;;;;5015128;28;19923;-90
2021/01/06 07:59:58;;;;;;;;;;;4.50;93.70;;;;;;5012271;28;19917;-91
2021/01/06 08:02:36;;;;;;;;;;;4.50;93.60;;;;;;5015751;28;19916;-92
2021/01/06 08:05:13;;;;;;;;;;;4.50;93.70;;;;;;5013056;28;19937;-92
2021/01/06 08:07:39;;;;;;;;;;;4.50;93.70;;;;;;4998719;28;20015;-92
2021/01/06 08:10:34;;;;;;;;;;;4.50;93.60;;;;;;4999925;28;19918;-90
2021/01/06 08:13:15;;;;;;;;;;;4.50;93.60;;;;;;5001535;28;19913;-89
2021/01/06 08:15:42;;;;;;;;;;;4.50;93.60;;;;;;5013244;28;19917;-92
2021/01/06 08:18:26;;;;;;;;;;;4.50;93.60;;;;;;5008341;28;20680;-92
2021/01/06 08:21:03;;;;;;;;;;;4.50;93.60;;;;;;5026411;28;20428;-93
2021/01/06 08:23:46;;;;;;;;;;;4.60;93.70;;;;;;5010951;28;19982;-91
2021/01/06 08:26:21;;;;;;;;;;;4.50;93.60;;;;;;5029598;28;19953;-91
2021/01/06 08:28:47;;;;;;;;;;;4.50;93.60;;;;;;5014282;28;19953;-92
2021/01/06 08:31:17;;;;;;;;;;;4.50;93.60;;;;;;5024511;28;19957;-92
2021/01/06 08:33:52;;;;;;;;;;;4.60;93.60;;;;;;5012756;28;20331;-93
2021/01/06 08:36:36;;;;;;;;;;;4.60;93.70;;;;;;5015023;28;20426;-93
2021/01/06 08:39:12;;;;;;;;;;;4.60;93.70;;;;;;5006373;28;19929;-93
2021/01/06 08:41:37;;;;;;;;;;;4.60;93.60;;;;;;5026239;28;19952;-95
2021/01/06 08:44:04;;;;;;;;;;;4.60;93.50;;;;;;5030675;28;19917;-91
2021/01/06 08:46:32;;;;;;;;;;;4.60;93.60;;;;;;5025083;28;19910;-92
2021/01/06 08:49:16;;;;;;;;;;;4.60;93.60;;;;;;5013008;28;19924;-92
2021/01/06 08:51:44;;;;;;;;;;;4.60;93.40;;;;;;5017667;28;19920;-92
2021/01/06 08:54:25;;;;;;;;;;;4.60;93.30;;;;;;5000165;28;20018;-92
2021/01/06 08:56:59;;;;;;;;;;;4.60;93.30;;;;;;5016875;28;19974;-91
2021/01/06 08:59:25;;;;;;;;;;;4.60;93.20;;;;;;5014509;28;19925;-91
2021/01/06 09:01:52;;;;;;;;;;;4.50;93.30;;;;;;5004218;28;19941;-92
2021/01/06 09:04:31;;;;;;;;;;;4.60;93.30;;;;;;5014116;28;19917;-93
2021/01/06 09:07:03;;;;;;;;;;;4.60;93.20;;;;;;5006398;28;19917;-92
2021/01/06 09:09:42;;;;;;;;;;;4.60;93.20;;;;;;5034530;28;19916;-93
2021/01/06 09:12:28;;;;;;;;;;;4.60;93.20;;;;;;5011936;28;19972;-91
2021/01/06 09:14:56;;;;;;;;;;;4.50;93.40;;;;;;5009617;28;19913;-90
2021/01/06 09:17:34;;;;;;;;;;;4.50;93.10;;;;;;5015418;28;19909;-90
2021/01/06 09:20:04;;;;;;;;;;;4.50;93.10;;;;;;5016463;28;19948;-88
2021/01/06 09:22:30;;;;;;;;;;;4.50;93.20;;;;;;5035559;28;19906;-88
2021/01/06 09:24:55;;;;;;;;;;;4.50;93.10;;;;;;5019143;28;19902;-86
2021/01/06 09:27:24;;;;;;;;;;;4.50;93.30;;;;;;5036191;28;19901;-87
2021/01/06 09:29:50;;;;;;;;;;;4.50;93.00;;;;;;5036212;28;19912;-87
2021/01/06 09:32:18;;;;;;;;;;;4.60;93.00;;;;;;5045174;28;19897;-87
2021/01/06 09:34:47;;;;;;;;;;;4.50;92.90;;;;;;5044348;28;19922;-85
2021/01/06 09:37:18;;;;;;;;;;;4.50;92.90;;;;;;5032991;28;19921;-91
2021/01/06 09:39:45;;;;;;;;;;;4.50;92.90;;;;;;5036879;28;19921;-93
2021/01/06 09:42:11;;;;;;;;;;;4.50;92.90;;;;;;5012762;28;19952;-93
2021/01/06 09:44:37;;;;;;;;;;;4.50;92.80;;;;;;5003455;28;19918;-93
2021/01/06 09:47:04;;;;;;;;;;;4.60;92.90;;;;;;5004848;28;19921;-93
2021/01/06 09:49:35;;;;;;;;;;;4.50;92.90;;;;;;4998355;28;20386;-93
2021/01/06 09:52:03;;;;;;;;;;;4.50;92.90;;;;;;4998317;28;20391;-92
2021/01/06 09:54:29;;;;;;;;;;;4.60;93.00;;;;;;5003896;28;19964;-91
2021/01/06 09:56:55;;;;;;;;;;;4.60;93.00;;;;;;4996664;28;19914;-92
2021/01/06 09:59:23;;;;;;;;;;;4.60;92.90;;;;;;4997903;28;19918;-93
2021/01/06 10:01:49;;;;;;;;;;;4.60;92.90;;;;;;4994798;28;19914;-93
2021/01/06 10:04:16;;;;;;;;;;;4.60;92.90;;;;;;5007588;28;19917;-94
2021/01/06 10:06:42;;;;;;;;;;;4.60;92.90;;;;;;5001467;28;20403;-93
2021/01/06 10:09:07;;;;;;;;;;;4.60;92.80;;;;;;5001372;28;19914;-92
2021/01/06 10:11:41;;;;;;;;;;;4.70;92.90;;;;;;4994017;28;19914;-93
2021/01/06 10:14:15;;;;;;;;;;;4.70;92.80;;;;;;4994440;28;20360;-93
2021/01/06 10:16:45;;;;;;;;;;;4.70;92.80;;;;;;4996633;28;19949;-92
2021/01/06 10:19:31;;;;;;;;;;;4.70;92.80;;;;;;5012438;28;19917;-94
2021/01/06 10:21:59;;;;;;;;;;;4.70;92.80;;;;;;4984643;28;19913;-91
2021/01/06 10:24:43;;;;;;;;;;;4.70;92.70;;;;;;5001246;28;19924;-94
2021/01/06 10:27:18;;;;;;;;;;;4.80;92.70;;;;;;5006577;28;20389;-92
2021/01/06 10:29:46;;;;;;;;;;;4.80;92.70;;;;;;5006812;28;19920;-92
2021/01/06 10:32:11;;;;;;;;;;;4.80;92.70;;;;;;4995834;28;19937;-92
2021/01/06 10:34:36;;;;;;;;;;;4.70;92.70;;;;;;4994220;28;20363;-93
2021/01/06 10:37:02;;;;;;;;;;;4.80;92.80;;;;;;4994462;28;19916;-92
2021/01/06 10:39:27;;;;;;;;;;;4.80;92.80;;;;;;4993803;28;20366;-91
2021/01/06 10:42:00;;;;;;;;;;;4.80;92.80;;;;;;5024660;28;19925;-93
2021/01/06 10:44:30;;;;;;;;;;;4.80;92.70;;;;;;5017223;28;19915;-92
2021/01/06 10:47:16;;;;;;;;;;;4.80;92.70;;;;;;5018607;28;19919;-93
2021/01/06 10:49:41;;;;;;;;;;;4.90;92.70;;;;;;5013555;28;20012;-93
2021/01/06 10:52:07;;;;;;;;;;;4.90;92.70;;;;;;5022583;28;19968;-93
2021/01/06 10:54:37;;;;;;;;;;;4.90;92.70;;;;;;5009304;28;19913;-93
2021/01/06 10:57:21;;;;;;;;;;;4.90;92.60;;;;;;5011164;28;19913;-90
2021/01/06 11:00:08;;;;;;;;;;;5.00;92.70;;;;;;5014604;28;20019;-90
2021/01/06 11:02:58;;;;;;;;;;;5.00;92.60;;;;;;5005687;28;19913;-92
2021/01/06 11:05:49;;;;;;;;;;;5.00;92.60;;;;;;5015414;28;19912;-92
2021/01/06 11:08:24;;;;;;;;;;;5.00;92.60;;;;;;4984817;28;19959;-92
2021/01/06 11:11:22;;;;;;;;;;;5.00;92.70;;;;;;5015748;28;19913;-94
2021/01/06 11:14:14;;;;;;;;;;;5.00;92.60;;;;;;4973308;28;19920;-92
2021/01/06 11:16:50;;;;;;;;;;;5.00;92.80;;;;;;4974890;28;19910;-93
2021/01/06 11:19:34;;;;;;;;;;;5.00;92.50;;;;;;5012494;28;19921;-91
2021/01/06 11:22:03;;;;;;;;;;;5.00;92.50;;;;;;5012843;28;20343;-92
2021/01/06 11:24:47;;;;;;;;;;;5.00;92.50;;;;;;5005511;28;19913;-91
2021/01/06 11:27:32;;;;;;;;;;;5.00;92.50;;;;;;5009301;28;19909;-94
2021/01/06 11:30:02;;;;;;;;;;;5.00;92.50;;;;;;5020356;28;19914;-92
2021/01/06 11:32:30;;;;;;;;;;;5.00;92.40;;;;;;5020251;28;19917;-91
2021/01/06 11:35:08;;;;;;;;;;;5.00;92.50;;;;;;5015603;28;19971;-91
2021/01/06 11:37:37;;;;;;;;;;;5.00;92.50;;;;;;5004923;28;19910;-93
2021/01/06 11:40:06;;;;;;;;;;;5.00;92.50;;;;;;5031634;28;19920;-95
2021/01/06 11:42:50;;;;;;;;;;;5.00;92.50;;;;;;5010989;28;19956;-91
2021/01/06 11:45:18;;;;;;;;;;;5.00;92.50;;;;;;5016063;28;19920;-91
2021/01/06 11:47:49;;;;;;;;;;;5.10;92.80;;;;;;4998735;28;20380;-94
2021/01/06 11:50:15;;;;;;;;;;;5.10;92.50;;;;;;5016753;28;20359;-92
2021/01/06 11:52:43;;;;;;;;;;;5.10;92.50;;;;;;5037858;28;19909;-93
2021/01/06 11:55:20;;;;;;;;;;;5.10;92.50;;;;;;5033228;28;19913;-94
2021/01/06 11:57:49;;;;;;;;;;;5.10;92.40;;;;;;5018809;28;19932;-93
2021/01/06 12:00:21;;;;;;;;;;;5.10;92.40;;;;;;5008373;28;19913;-93
2021/01/06 12:02:53;;;;;;;;;;;5.20;92.40;;;;;;5020811;28;19917;-94
2021/01/06 12:05:31;;;;;;;;;;;5.20;92.40;;;;;;5019973;28;19920;-92
2021/01/06 12:08:03;;;;;;;;;;;5.20;92.40;;;;;;5005211;28;19971;-92
2021/01/06 12:10:47;;;;;;;;;;;5.20;92.70;;;;;;5029942;28;19909;-92
2021/01/06 12:13:13;;;;;;;;;;;5.20;92.40;;;;;;5021057;28;20360;-96
2021/01/06 12:15:42;;;;;;;;;;;5.20;92.40;;;;;;5018771;28;19913;-94
2021/01/06 12:18:18;;;;;;;;;;;5.20;92.40;;;;;;5033084;28;19925;-94
2021/01/06 12:20:45;;;;;;;;;;;5.30;92.40;;;;;;5016195;28;20371;-95
2021/01/06 12:23:14;;;;;;;;;;;5.30;92.40;;;;;;5017546;28;20330;-94
2021/01/06 12:25:47;;;;;;;;;;;5.30;92.50;;;;;;5032804;28;19936;-96
2021/01/06 12:28:25;;;;;;;;;;;5.30;92.40;;;;;;5018927;28;19924;-93
2021/01/06 12:31:04;;;;;;;;;;;5.30;92.30;;;;;;5035042;28;19956;-94
2021/01/06 12:33:31;;;;;;;;;;;5.30;92.20;;;;;;5035067;28;19909;-95
2021/01/06 12:36:16;;;;;;;;;;;5.30;92.30;;;;;;5028645;28;19932;-94
2021/01/06 12:38:42;;;;;;;;;;;5.30;92.20;;;;;;5017839;28;19924;-93
2021/01/06 12:41:21;;;;;;;;;;;5.40;92.30;;;;;;4998223;28;20403;-93
2021/01/06 12:44:07;;;;;;;;;;;5.40;92.20;;;;;;5028634;28;19913;-92
2021/01/06 12:46:41;;;;;;;;;;;5.40;92.20;;;;;;5006351;28;19919;-92
2021/01/06 12:49:10;;;;;;;;;;;5.40;92.20;;;;;;5017151;28;19913;-93
2021/01/06 12:51:39;;;;;;;;;;;5.40;92.10;;;;;;5017121;28;19913;-94
2021/01/06 12:54:07;;;;;;;;;;;5.40;92.10;;;;;;5003282;28;19913;-93
2021/01/06 12:56:38;;;;;;;;;;;5.40;92.10;;;;;;5017669;28;19909;-93
2021/01/06 12:59:19;;;;;;;;;;;5.40;92.00;;;;;;5003917;28;19924;-89
2021/01/06 13:01:59;;;;;;;;;;;5.40;91.90;;;;;;5034101;28;19915;-94
2021/01/06 13:04:29;;;;;;;;;;;5.40;91.90;;;;;;5018965;28;19909;-94
2021/01/06 13:07:14;;;;;;;;;;;5.40;91.80;;;;;;5028013;28;19909;-92
2021/01/06 13:09:49;;;;;;;;;;;5.40;91.80;;;;;;5032157;28;19965;-91
2021/01/06 13:12:23;;;;;;;;;;;5.40;91.80;;;;;;5034816;28;19910;-91
2021/01/06 13:15:06;;;;;;;;;;;5.40;91.80;;;;;;5050607;28;19908;-92
2021/01/06 13:17:37;;;;;;;;;;;5.40;91.80;;;;;;5031410;28;19932;-91
2021/01/06 13:20:06;;;;;;;;;;;5.40;91.80;;;;;;5034491;28;19910;-94
2021/01/06 13:22:41;;;;;;;;;;;5.40;91.80;;;;;;5032234;28;19968;-92
2021/01/06 13:25:07;;;;;;;;;;;5.40;91.80;;;;;;5033810;28;19964;-91
2021/01/06 13:27:38;;;;;;;;;;;5.40;91.80;;;;;;5016415;28;19992;-92
2021/01/06 13:30:14;;;;;;;;;;;5.40;91.70;;;;;;5020840;28;19917;-94
2021/01/06 13:32:45;;;;;;;;;;;5.40;91.50;;;;;;5016228;28;19914;-91
2021/01/06 13:35:19;;;;;;;;;;;5.40;91.40;;;;;;5026593;28;19917;-94
2021/01/06 13:37:45;;;;;;;;;;;5.40;91.40;;;;;;5026249;28;20000;-93
2021/01/06 13:40:18;;;;;;;;;;;5.40;91.40;;;;;;5014384;28;20386;-92
2021/01/06 13:42:43;;;;;;;;;;;5.40;91.50;;;;;;5024043;28;19916;-92
2021/01/06 13:45:12;;;;;;;;;;;5.40;91.50;;;;;;5023061;28;20029;-93
2021/01/06 13:47:42;;;;;;;;;;;5.40;91.50;;;;;;5007959;28;19959;-92
2021/01/06 13:50:17;;;;;;;;;;;5.40;91.50;;;;;;5016748;28;19960;-92
2021/01/06 13:52:48;;;;;;;;;;;5.40;91.40;;;;;;5025337;28;19924;-93
2021/01/06 13:55:19;;;;;;;;;;;5.40;91.30;;;;;;5012091;28;19920;-91
2021/01/06 13:57:54;;;;;;;;;;;5.40;91.30;;;;;;5000056;28;19967;-90
2021/01/06 14:00:22;;;;;;;;;;;5.40;91.40;;;;;;5011729;28;19913;-90
2021/01/06 14:03:00;;;;;;;;;;;5.40;91.40;;;;;;4999144;28;19918;-91
2021/01/06 14:05:28;;;;;;;;;;;5.40;91.40;;;;;;5019239;28;19909;-92
2021/01/06 14:08:14;;;;;;;;;;;5.40;91.50;;;;;;5033224;28;19909;-92
2021/01/06 14:10:58;;;;;;;;;;;5.40;91.40;;;;;;5022428;28;19920;-92
2021/01/06 14:13:35;;;;;;;;;;;5.40;91.40;;;;;;5016146;28;19939;-92
2021/01/06 14:16:08;;;;;;;;;;;5.30;91.30;;;;;;5023601;28;19910;-92
2021/01/06 14:18:36;;;;;;;;;;;5.30;91.40;;;;;;5030943;28;20009;-92
2021/01/06 14:21:05;;;;;;;;;;;5.40;91.40;;;;;;5016058;28;19909;-92
2021/01/06 14:23:48;;;;;;;;;;;5.30;91.40;;;;;;5033529;28;19972;-92
2021/01/06 14:26:28;;;;;;;;;;;5.30;91.50;;;;;;5033553;28;19921;-92
2021/01/06 14:29:05;;;;;;;;;;;5.30;91.50;;;;;;5016524;28;20230;-92
2021/01/06 14:31:36;;;;;;;;;;;5.30;91.40;;;;;;5004952;28;19914;-95
2021/01/06 14:34:02;;;;;;;;;;;5.30;91.30;;;;;;5009961;28;19967;-93
2021/01/06 14:36:41;;;;;;;;;;;5.30;91.30;;;;;;4999999;28;20000;-91
2021/01/06 14:39:26;;;;;;;;;;;5.30;91.30;;;;;;5008580;28;19928;-91
2021/01/06 14:42:18;;;;;;;;;;;5.30;91.30;;;;;;5032230;28;19921;-92
2021/01/06 14:44:53;;;;;;;;;;;5.30;91.20;;;;;;4984180;28;19913;-94
2021/01/06 14:47:35;;;;;;;;;;;5.30;91.00;;;;;;5020310;28;19909;-91
2021/01/06 14:50:07;;;;;;;;;;;5.30;90.80;;;;;;5007023;28;19913;-93
2021/01/06 14:52:55;;;;;;;;;;;5.30;90.90;;;;;;4999365;28;19964;-95
2021/01/06 14:55:21;;;;;;;;;;;5.20;91.30;;;;;;4981521;28;19920;-94
2021/01/06 14:57:56;;;;;;;;;;;5.20;91.10;;;;;;5000424;28;19926;-93